Time;durP1;ratioP1;P1;durP2;ratioP2;P2;SDS_P1;SDS_P2;PMS_P1;PMS_P2;Temp;Humidity;BMP_temperature;BMP_pressure;BME280_temperature;BME280_humidity;BME280_pressure;Samples;Min_cycle;Max_cycle;Signal;HPM_P1;HPM_P2
2023/12/15 00:01:34;;;;;;;;;;;27.50;98.20;;;;;;4965492;28;20013;-76
2023/12/15 00:04:01;;;;;;;;;;;27.60;98.50;;;;;;4972535;28;20029;-82
2023/12/15 00:06:28;;;;;;;;;;;27.70;97.90;;;;;;4974345;28;20295;-85
2023/12/15 00:08:54;;;;;;;;;;;27.90;97.80;;;;;;4974127;28;19911;-81
2023/12/15 00:11:21;;;;;;;;;;;28.10;97.70;;;;;;4962675;28;19918;-80
2023/12/15 00:13:47;;;;;;;;;;;28.00;97.40;;;;;;4973715;28;19914;-79
2023/12/15 00:16:14;;;;;;;;;;;28.30;97.60;;;;;;4973623;28;19917;-76
2023/12/15 00:18:41;;;;;;;;;;;28.30;97.10;;;;;;4973873;28;19917;-74
2023/12/15 00:21:07;;;;;;;;;;;28.40;97.60;;;;;;4974004;28;19922;-78
2023/12/15 00:23:34;;;;;;;;;;;28.40;96.60;;;;;;4973257;28;19914;-74
2023/12/15 00:26:00;;;;;;;;;;;28.50;97.10;;;;;;4988451;28;19921;-76
2023/12/15 00:28:27;;;;;;;;;;;28.70;96.80;;;;;;4954810;28;19914;-76
2023/12/15 00:30:54;;;;;;;;;;;28.70;96.50;;;;;;4961454;28;19918;-74
2023/12/15 00:33:20;;;;;;;;;;;28.40;96.70;;;;;;4972692;28;19911;-75
2023/12/15 00:35:48;;;;;;;;;;;28.30;97.10;;;;;;4973208;28;19920;-78
2023/12/15 00:38:16;;;;;;;;;;;28.20;97.20;;;;;;4971875;28;19914;-77
2023/12/15 00:40:43;;;;;;;;;;;28.10;97.30;;;;;;4966843;28;20360;-74
2023/12/15 00:43:10;;;;;;;;;;;28.30;97.40;;;;;;4971936;28;19925;-71
2023/12/15 00:45:37;;;;;;;;;;;28.50;97.40;;;;;;4979693;28;19910;-78
2023/12/15 00:48:03;;;;;;;;;;;28.80;97.00;;;;;;5074828;28;20377;-75
2023/12/15 00:50:30;;;;;;;;;;;29.00;96.10;;;;;;5075139;28;20353;-76
2023/12/15 00:52:57;;;;;;;;;;;29.20;96.40;;;;;;5055926;28;19913;-75
2023/12/15 00:55:23;;;;;;;;;;;29.50;95.70;;;;;;4971034;28;19940;-75
2023/12/15 00:57:50;;;;;;;;;;;29.60;95.20;;;;;;4972973;28;19914;-74
2023/12/15 01:00:17;;;;;;;;;;;29.50;95.20;;;;;;4972606;28;20286;-77
2023/12/15 01:02:44;;;;;;;;;;;29.20;95.20;;;;;;4984914;28;19910;-73
2023/12/15 01:05:10;;;;;;;;;;;28.80;95.60;;;;;;4972240;28;19954;-76
2023/12/15 01:07:37;;;;;;;;;;;28.60;96.10;;;;;;4973032;28;20013;-73
2023/12/15 01:10:04;;;;;;;;;;;28.50;95.90;;;;;;5046200;28;20316;-74
2023/12/15 01:12:31;;;;;;;;;;;28.20;96.20;;;;;;5000683;28;21292;-76
2023/12/15 01:14:57;;;;;;;;;;;28.20;96.60;;;;;;4963623;28;20367;-77
2023/12/15 01:17:24;;;;;;;;;;;28.30;96.20;;;;;;4953547;28;20001;-77
2023/12/15 01:19:51;;;;;;;;;;;28.20;96.30;;;;;;4952894;28;19911;-75
2023/12/15 01:22:17;;;;;;;;;;;28.20;96.40;;;;;;4953752;28;19984;-76
2023/12/15 01:24:44;;;;;;;;;;;28.50;96.40;;;;;;4972584;28;20394;-78
2023/12/15 01:27:11;;;;;;;;;;;28.80;96.00;;;;;;4969316;28;20295;-72
2023/12/15 01:29:38;;;;;;;;;;;28.90;95.60;;;;;;4965988;28;19915;-75
2023/12/15 01:32:05;;;;;;;;;;;29.00;95.60;;;;;;4953469;28;19910;-75
2023/12/15 01:34:31;;;;;;;;;;;28.90;95.80;;;;;;4979867;28;19917;-74
2023/12/15 01:36:58;;;;;;;;;;;28.80;95.80;;;;;;4979695;28;19917;-77
2023/12/15 01:39:25;;;;;;;;;;;28.60;96.00;;;;;;4977700;28;19957;-78
2023/12/15 01:41:51;;;;;;;;;;;28.60;96.40;;;;;;4971112;28;20561;-74
2023/12/15 01:44:18;;;;;;;;;;;28.70;96.10;;;;;;4956796;28;19921;-78
2023/12/15 01:46:44;;;;;;;;;;;28.90;96.50;;;;;;4972310;28;19999;-73
2023/12/15 01:49:11;;;;;;;;;;;29.00;96.00;;;;;;4972666;28;20279;-74
2023/12/15 01:51:38;;;;;;;;;;;29.40;95.60;;;;;;4972086;28;20359;-72
2023/12/15 01:54:05;;;;;;;;;;;29.40;95.60;;;;;;4975495;28;19945;-71
2023/12/15 01:56:31;;;;;;;;;;;29.40;95.20;;;;;;4958069;28;19968;-79
2023/12/15 01:58:58;;;;;;;;;;;29.20;95.50;;;;;;4955098;28;19914;-75
2023/12/15 02:01:25;;;;;;;;;;;28.80;96.10;;;;;;4953056;28;19915;-75
2023/12/15 02:03:51;;;;;;;;;;;28.40;96.50;;;;;;4965091;28;19956;-74
2023/12/15 02:06:18;;;;;;;;;;;28.30;96.40;;;;;;4952798;28;19922;-78
2023/12/15 02:08:45;;;;;;;;;;;28.00;96.80;;;;;;4952851;28;19949;-75
2023/12/15 02:11:11;;;;;;;;;;;27.60;97.50;;;;;;4952614;28;19918;-74
2023/12/15 02:13:38;;;;;;;;;;;27.80;98.10;;;;;;4952801;28;19922;-74
2023/12/15 02:16:05;;;;;;;;;;;28.40;97.30;;;;;;4952559;28;19914;-72
2023/12/15 02:18:32;;;;;;;;;;;29.10;96.40;;;;;;4970889;28;19918;-75
2023/12/15 02:20:58;;;;;;;;;;;29.10;95.80;;;;;;4971222;28;19914;-72
2023/12/15 02:23:25;;;;;;;;;;;29.60;95.20;;;;;;4971218;28;20283;-74
2023/12/15 02:25:52;;;;;;;;;;;29.90;94.90;;;;;;4971270;28;19914;-75
2023/12/15 02:28:19;;;;;;;;;;;30.10;94.80;;;;;;4970017;28;19914;-72
2023/12/15 02:30:49;;;;;;;;;;;30.10;93.70;;;;;;4951854;28;19911;-75
2023/12/15 02:33:16;;;;;;;;;;;30.10;94.70;;;;;;4963138;28;19916;-80
2023/12/15 02:35:43;;;;;;;;;;;29.80;94.20;;;;;;4971675;28;19958;-76
2023/12/15 02:38:10;;;;;;;;;;;29.70;94.10;;;;;;4962072;28;19921;-75
2023/12/15 02:40:37;;;;;;;;;;;30.00;93.90;;;;;;4970403;28;19995;-73
2023/12/15 02:43:03;;;;;;;;;;;29.80;94.70;;;;;;4970651;28;19929;-73
2023/12/15 02:45:30;;;;;;;;;;;29.80;94.70;;;;;;4960228;28;19921;-72
2023/12/15 02:47:57;;;;;;;;;;;30.10;94.70;;;;;;4955980;28;19919;-73
2023/12/15 02:50:23;;;;;;;;;;;30.70;94.00;;;;;;5027694;28;19948;-79
2023/12/15 02:52:50;;;;;;;;;;;31.00;94.20;;;;;;5018003;28;19918;-73
2023/12/15 02:55:17;;;;;;;;;;;31.50;93.20;;;;;;4971112;28;19966;-75
2023/12/15 02:57:44;;;;;;;;;;;31.80;91.90;;;;;;4971038;28;19956;-73
2023/12/15 03:00:11;;;;;;;;;;;31.60;92.10;;;;;;4970421;28;19964;-72
2023/12/15 03:02:40;;;;;;;;;;;32.40;91.60;;;;;;4966060;28;19914;-74
2023/12/15 03:05:07;;;;;;;;;;;32.90;91.50;;;;;;4970730;28;20367;-74
2023/12/15 03:07:33;;;;;;;;;;;33.70;90.10;;;;;;4966037;28;19922;-72
2023/12/15 03:10:00;;;;;;;;;;;34.40;88.40;;;;;;5040451;28;19915;-74
2023/12/15 03:12:28;;;;;;;;;;;35.00;87.00;;;;;;4972361;28;19910;-74
2023/12/15 03:14:56;;;;;;;;;;;35.70;83.60;;;;;;4951682;28;19915;-74
2023/12/15 03:17:23;;;;;;;;;;;35.80;82.90;;;;;;4958256;28;21018;-76
2023/12/15 03:19:50;;;;;;;;;;;35.20;81.50;;;;;;4966857;28;19922;-76
2023/12/15 03:22:17;;;;;;;;;;;35.70;81.80;;;;;;4955911;28;20032;-78
2023/12/15 03:24:43;;;;;;;;;;;36.50;80.70;;;;;;4970653;28;19911;-75
2023/12/15 03:27:10;;;;;;;;;;;36.90;78.80;;;;;;4970500;28;19929;-73
2023/12/15 03:29:37;;;;;;;;;;;37.00;81.30;;;;;;4970850;28;20282;-76
2023/12/15 03:32:03;;;;;;;;;;;37.30;77.70;;;;;;4970388;28;19914;-76
2023/12/15 03:34:30;;;;;;;;;;;38.50;76.20;;;;;;4964398;28;20538;-72
2023/12/15 03:36:57;;;;;;;;;;;38.00;74.20;;;;;;4970323;28;19956;-73
2023/12/15 03:39:23;;;;;;;;;;;37.20;73.40;;;;;;4969970;28;19965;-72
2023/12/15 03:41:50;;;;;;;;;;;36.90;75.90;;;;;;4967311;28;19930;-73
2023/12/15 03:44:17;;;;;;;;;;;37.60;75.30;;;;;;4965637;28;19928;-73
2023/12/15 03:46:43;;;;;;;;;;;36.80;76.30;;;;;;4969471;28;20012;-79
2023/12/15 03:49:10;;;;;;;;;;;35.90;78.20;;;;;;4980779;28;19919;-72
2023/12/15 03:51:37;;;;;;;;;;;37.00;78.30;;;;;;4968215;28;19917;-73
2023/12/15 03:54:03;;;;;;;;;;;36.30;76.00;;;;;;4969072;28;20382;-74
2023/12/15 03:56:31;;;;;;;;;;;36.10;77.90;;;;;;4969761;28;19910;-81
2023/12/15 03:58:58;;;;;;;;;;;35.90;75.20;;;;;;4970157;28;19910;-75
2023/12/15 04:01:24;;;;;;;;;;;35.10;79.80;;;;;;4969737;28;20434;-74
2023/12/15 04:03:51;;;;;;;;;;;36.30;77.00;;;;;;4961206;28;19921;-73
2023/12/15 04:06:18;;;;;;;;;;;36.20;78.40;;;;;;4950511;28;19918;-78
2023/12/15 04:08:44;;;;;;;;;;;35.30;78.40;;;;;;4950826;28;19957;-77
2023/12/15 04:11:11;;;;;;;;;;;35.90;77.90;;;;;;4950614;28;19922;-74
2023/12/15 04:13:37;;;;;;;;;;;37.10;75.30;;;;;;4961525;28;19968;-73
2023/12/15 04:16:05;;;;;;;;;;;37.70;73.60;;;;;;4969220;28;19915;-77
2023/12/15 04:18:32;;;;;;;;;;;37.40;73.20;;;;;;4969870;28;19910;-75
2023/12/15 04:21:00;;;;;;;;;;;35.50;77.90;;;;;;4959988;28;19915;-73
2023/12/15 04:23:27;;;;;;;;;;;35.50;76.70;;;;;;4968951;28;19930;-72
2023/12/15 04:25:53;;;;;;;;;;;35.30;76.40;;;;;;4968767;28;20381;-74
2023/12/15 04:28:20;;;;;;;;;;;33.90;78.70;;;;;;4969206;28;20286;-74
2023/12/15 04:30:46;;;;;;;;;;;34.40;78.80;;;;;;4969803;28;19926;-73
2023/12/15 04:33:13;;;;;;;;;;;33.60;81.20;;;;;;4963562;28;19918;-72
2023/12/15 04:35:40;;;;;;;;;;;33.90;79.70;;;;;;4969211;28;19963;-73
2023/12/15 04:38:06;;;;;;;;;;;34.00;80.00;;;;;;4969678;28;20393;-78
2023/12/15 04:40:33;;;;;;;;;;;33.80;81.50;;;;;;4968730;28;20008;-74
2023/12/15 04:43:00;;;;;;;;;;;34.80;81.60;;;;;;4968585;28;19910;-74
2023/12/15 04:45:26;;;;;;;;;;;35.10;78.60;;;;;;4971046;28;20000;-76
2023/12/15 04:47:54;;;;;;;;;;;34.70;80.30;;;;;;4960754;28;20061;-72
2023/12/15 04:50:21;;;;;;;;;;;34.50;79.20;;;;;;4953148;28;19915;-75
2023/12/15 04:52:47;;;;;;;;;;;33.20;81.80;;;;;;4972527;28;20016;-73
2023/12/15 04:55:14;;;;;;;;;;;32.40;83.30;;;;;;4968128;28;20476;-81
2023/12/15 04:57:41;;;;;;;;;;;33.10;82.60;;;;;;4974131;28;20305;-74
2023/12/15 05:00:07;;;;;;;;;;;32.50;83.70;;;;;;4971668;28;19918;-72
2023/12/15 05:02:34;;;;;;;;;;;32.70;81.10;;;;;;4972616;28;19921;-73
2023/12/15 05:05:01;;;;;;;;;;;31.60;83.90;;;;;;4969585;28;20265;-76
2023/12/15 05:07:27;;;;;;;;;;;31.40;85.10;;;;;;4954053;28;19930;-73
2023/12/15 05:09:54;;;;;;;;;;;31.50;84.70;;;;;;4983791;28;19910;-74
2023/12/15 05:12:21;;;;;;;;;;;32.10;83.50;;;;;;4972054;28;19914;-79
2023/12/15 05:14:47;;;;;;;;;;;33.00;83.40;;;;;;4972050;28;19918;-75
2023/12/15 05:17:14;;;;;;;;;;;33.70;81.80;;;;;;4972658;28;19918;-76
2023/12/15 05:19:41;;;;;;;;;;;34.00;80.50;;;;;;4970440;28;20381;-74
2023/12/15 05:22:07;;;;;;;;;;;34.00;81.70;;;;;;4971242;28;19933;-76
2023/12/15 05:24:34;;;;;;;;;;;34.60;80.30;;;;;;4969137;28;19918;-73
2023/12/15 05:27:01;;;;;;;;;;;35.50;78.60;;;;;;4962917;28;19957;-74
2023/12/15 05:29:28;;;;;;;;;;;35.30;78.40;;;;;;4975577;28;19917;-71
2023/12/15 05:31:54;;;;;;;;;;;35.30;79.40;;;;;;4972457;28;19911;-73
2023/12/15 05:34:21;;;;;;;;;;;35.50;77.90;;;;;;4970944;28;19910;-74
2023/12/15 05:36:47;;;;;;;;;;;34.30;79.60;;;;;;4972162;28;19914;-74
2023/12/15 05:39:14;;;;;;;;;;;33.90;80.60;;;;;;4970087;28;19926;-75
2023/12/15 05:41:41;;;;;;;;;;;34.20;80.30;;;;;;4968709;28;20260;-74
2023/12/15 05:44:08;;;;;;;;;;;33.60;79.40;;;;;;4971512;28;19918;-72
2023/12/15 05:46:40;;;;;;;;;;;32.40;82.50;;;;;;4964932;28;19925;-72
2023/12/15 05:49:07;;;;;;;;;;;31.90;85.10;;;;;;4972080;28;20307;-71
2023/12/15 05:51:33;;;;;;;;;;;31.40;86.70;;;;;;4971609;28;19911;-75
2023/12/15 05:54:00;;;;;;;;;;;31.50;88.40;;;;;;4969339;28;20330;-73
2023/12/15 05:56:26;;;;;;;;;;;31.10;87.80;;;;;;4972037;28;19914;-72
2023/12/15 05:58:53;;;;;;;;;;;30.50;89.70;;;;;;4974532;28;19914;-73
2023/12/15 06:01:20;;;;;;;;;;;30.70;90.10;;;;;;4974596;28;19914;-72
2023/12/15 06:03:46;;;;;;;;;;;30.80;88.80;;;;;;4967315;28;19914;-74
2023/12/15 06:06:13;;;;;;;;;;;30.40;90.50;;;;;;4966700;28;19925;-75
2023/12/15 06:08:39;;;;;;;;;;;30.60;90.30;;;;;;4976741;28;20278;-77
2023/12/15 06:11:06;;;;;;;;;;;30.40;90.40;;;;;;4971412;28;19910;-71
2023/12/15 06:13:34;;;;;;;;;;;30.30;90.70;;;;;;4954705;28;19921;-74
2023/12/15 06:16:01;;;;;;;;;;;30.00;91.00;;;;;;4957148;28;20379;-74
2023/12/15 06:18:28;;;;;;;;;;;30.00;91.20;;;;;;4962687;28;20398;-79
2023/12/15 06:20:54;;;;;;;;;;;30.20;91.10;;;;;;4972268;28;19922;-73
2023/12/15 06:23:21;;;;;;;;;;;29.80;91.40;;;;;;4971827;28;20398;-75
2023/12/15 06:25:48;;;;;;;;;;;29.80;91.80;;;;;;4962127;28;19957;-73
2023/12/15 06:28:14;;;;;;;;;;;29.50;91.50;;;;;;4960486;28;20005;-75
2023/12/15 06:30:41;;;;;;;;;;;29.20;92.40;;;;;;4963284;28;19918;-76
2023/12/15 06:33:07;;;;;;;;;;;29.10;92.50;;;;;;4965333;28;19918;-79
2023/12/15 06:35:34;;;;;;;;;;;29.00;93.30;;;;;;4970808;28;19954;-71
2023/12/15 06:38:01;;;;;;;;;;;29.40;92.70;;;;;;4970880;28;20000;-75
2023/12/15 06:40:27;;;;;;;;;;;29.50;92.60;;;;;;4957028;28;20038;-74
2023/12/15 06:42:54;;;;;;;;;;;29.50;92.70;;;;;;4962795;28;20386;-75
2023/12/15 06:45:21;;;;;;;;;;;29.30;92.90;;;;;;4970639;28;19949;-74
2023/12/15 06:47:47;;;;;;;;;;;28.80;93.20;;;;;;4970213;28;20012;-74
2023/12/15 06:50:14;;;;;;;;;;;28.80;93.80;;;;;;4959670;28;19921;-76
2023/12/15 06:52:41;;;;;;;;;;;28.50;93.60;;;;;;4961618;28;19918;-77
2023/12/15 06:55:07;;;;;;;;;;;28.60;93.70;;;;;;4969936;28;19918;-76
2023/12/15 06:57:34;;;;;;;;;;;28.40;93.90;;;;;;5008350;28;19956;-76
2023/12/15 07:00:01;;;;;;;;;;;28.30;93.60;;;;;;4973045;28;20343;-73
2023/12/15 07:02:27;;;;;;;;;;;28.30;94.10;;;;;;4969807;28;19917;-76
2023/12/15 07:04:54;;;;;;;;;;;27.90;94.30;;;;;;4965986;28;19922;-72
2023/12/15 07:07:23;;;;;;;;;;;27.60;94.50;;;;;;5024554;28;19954;-79
2023/12/15 07:09:49;;;;;;;;;;;27.20;96.00;;;;;;4992599;28;19914;-77
2023/12/15 07:12:16;;;;;;;;;;;27.00;96.40;;;;;;4969926;28;19917;-80
2023/12/15 07:14:42;;;;;;;;;;;27.20;96.70;;;;;;4962691;28;19914;-77
2023/12/15 07:17:09;;;;;;;;;;;27.30;96.40;;;;;;4969677;28;19914;-72
2023/12/15 07:19:36;;;;;;;;;;;27.20;96.40;;;;;;4960827;28;20333;-77
2023/12/15 07:22:02;;;;;;;;;;;27.10;96.30;;;;;;4950910;28;20395;-76
2023/12/15 07:24:29;;;;;;;;;;;26.90;97.00;;;;;;4963852;28;20406;-80
2023/12/15 07:26:56;;;;;;;;;;;26.60;97.60;;;;;;4970172;28;19919;-73
2023/12/15 07:29:22;;;;;;;;;;;26.60;97.60;;;;;;4969686;28;19914;-75
2023/12/15 07:31:50;;;;;;;;;;;26.50;98.00;;;;;;4970682;28;20420;-78
2023/12/15 07:34:17;;;;;;;;;;;26.50;98.10;;;;;;4970685;28;19917;-76
2023/12/15 07:36:43;;;;;;;;;;;26.60;97.90;;;;;;4970534;28;20336;-72
2023/12/15 07:39:10;;;;;;;;;;;26.80;97.90;;;;;;4970791;28;19914;-78
2023/12/15 07:41:40;;;;;;;;;;;26.80;97.80;;;;;;4970726;28;19910;-79
2023/12/15 07:44:06;;;;;;;;;;;26.90;98.00;;;;;;4970996;28;19964;-72
2023/12/15 07:46:33;;;;;;;;;;;27.00;97.80;;;;;;4967504;28;19941;-73
2023/12/15 07:49:00;;;;;;;;;;;27.00;97.80;;;;;;4968780;28;19914;-73
2023/12/15 07:51:27;;;;;;;;;;;27.10;98.00;;;;;;4968116;28;19914;-71
2023/12/15 07:53:53;;;;;;;;;;;26.90;97.80;;;;;;4968838;28;19961;-72
2023/12/15 07:56:24;;;;;;;;;;;26.70;98.30;;;;;;4969134;28;19910;-72
2023/12/15 07:58:51;;;;;;;;;;;26.60;98.60;;;;;;4969457;28;19952;-73
2023/12/15 08:01:18;;;;;;;;;;;26.50;98.70;;;;;;4970391;28;20400;-72
2023/12/15 08:03:45;;;;;;;;;;;26.30;99.00;;;;;;4970326;28;19917;-74
2023/12/15 08:06:13;;;;;;;;;;;26.20;99.40;;;;;;4969887;28;20274;-71
2023/12/15 08:08:43;;;;;;;;;;;26.10;99.60;;;;;;4969990;28;19910;-76
2023/12/15 08:11:10;;;;;;;;;;;26.00;99.90;;;;;;4984505;28;19913;-73
2023/12/15 08:13:37;;;;;;;;;;;25.80;99.90;;;;;;5071393;28;19908;-73
2023/12/15 08:16:04;;;;;;;;;;;25.70;99.90;;;;;;5030810;28;19914;-73
2023/12/15 08:18:31;;;;;;;;;;;25.70;99.90;;;;;;4969943;28;20371;-73
2023/12/15 08:20:58;;;;;;;;;;;25.60;99.90;;;;;;4971833;28;20375;-72
2023/12/15 08:23:25;;;;;;;;;;;25.60;99.90;;;;;;4973363;28;20298;-75
2023/12/15 08:25:52;;;;;;;;;;;25.40;99.90;;;;;;4971449;28;20428;-72
2023/12/15 08:28:20;;;;;;;;;;;25.30;99.90;;;;;;4971541;28;20022;-74
2023/12/15 08:30:47;;;;;;;;;;;25.40;99.90;;;;;;4972842;28;19914;-74
2023/12/15 08:33:14;;;;;;;;;;;25.30;99.90;;;;;;4972606;28;19918;-74
2023/12/15 08:35:40;;;;;;;;;;;25.40;99.90;;;;;;4973031;28;19914;-72
2023/12/15 08:38:07;;;;;;;;;;;25.30;99.90;;;;;;4972884;28;19960;-72
2023/12/15 08:40:34;;;;;;;;;;;25.30;99.90;;;;;;4969531;28;19918;-73
2023/12/15 08:43:01;;;;;;;;;;;25.30;99.90;;;;;;4972311;28;20248;-72
2023/12/15 08:45:27;;;;;;;;;;;25.10;99.90;;;;;;4972441;28;20560;-75
2023/12/15 08:47:54;;;;;;;;;;;25.00;99.90;;;;;;4972466;28;19929;-74
2023/12/15 08:50:21;;;;;;;;;;;24.80;99.90;;;;;;4969621;28;19914;-69
2023/12/15 08:52:47;;;;;;;;;;;24.80;99.90;;;;;;4972704;28;19910;-72
2023/12/15 08:55:14;;;;;;;;;;;24.80;99.90;;;;;;4972803;28;19910;-74
2023/12/15 08:57:40;;;;;;;;;;;24.60;99.90;;;;;;4975168;28;20379;-76
2023/12/15 09:00:07;;;;;;;;;;;24.60;99.90;;;;;;4972824;28;19910;-74
2023/12/15 09:02:34;;;;;;;;;;;24.60;99.90;;;;;;4972361;28;19918;-77
2023/12/15 09:05:00;;;;;;;;;;;24.60;99.90;;;;;;5030824;28;19914;-74
2023/12/15 09:07:27;;;;;;;;;;;24.60;99.90;;;;;;4972635;28;20452;-72
2023/12/15 09:09:55;;;;;;;;;;;24.80;99.90;;;;;;4971911;28;19921;-72
2023/12/15 09:12:22;;;;;;;;;;;24.60;99.90;;;;;;4971060;28;19914;-75
2023/12/15 09:14:48;;;;;;;;;;;24.50;99.90;;;;;;4953190;28;20371;-73
2023/12/15 09:17:15;;;;;;;;;;;24.40;99.90;;;;;;4969100;28;19948;-72
2023/12/15 09:19:42;;;;;;;;;;;24.50;99.90;;;;;;4964011;28;19914;-72
2023/12/15 09:22:09;;;;;;;;;;;24.50;99.90;;;;;;4971936;28;20302;-73
2023/12/15 09:24:35;;;;;;;;;;;24.50;99.90;;;;;;4972092;28;19911;-77
2023/12/15 09:27:02;;;;;;;;;;;24.50;99.90;;;;;;4971688;28;19925;-72
2023/12/15 09:29:30;;;;;;;;;;;24.60;99.90;;;;;;4971949;28;19949;-69
2023/12/15 09:31:57;;;;;;;;;;;24.60;99.90;;;;;;4963684;28;19915;-71
2023/12/15 09:34:24;;;;;;;;;;;24.60;99.90;;;;;;4972037;28;19916;-71
2023/12/15 09:36:50;;;;;;;;;;;24.60;99.90;;;;;;4971597;28;19914;-72
2023/12/15 09:39:17;;;;;;;;;;;24.50;99.90;;;;;;4971576;28;19917;-72
2023/12/15 09:41:44;;;;;;;;;;;24.50;99.90;;;;;;4973598;28;19918;-72
2023/12/15 09:44:10;;;;;;;;;;;24.40;99.90;;;;;;4970673;28;19915;-75
2023/12/15 09:46:38;;;;;;;;;;;24.40;99.90;;;;;;4972205;28;19921;-75
2023/12/15 09:49:05;;;;;;;;;;;24.40;99.90;;;;;;4971094;28;19914;-71
2023/12/15 09:51:33;;;;;;;;;;;24.30;99.90;;;;;;4979146;28;19916;-74
2023/12/15 09:53:59;;;;;;;;;;;24.20;99.90;;;;;;4973065;28;19926;-69
2023/12/15 09:56:26;;;;;;;;;;;24.10;99.90;;;;;;4956493;28;19914;-71
2023/12/15 09:58:54;;;;;;;;;;;24.00;99.90;;;;;;4952527;28;19921;-72
2023/12/15 10:01:21;;;;;;;;;;;23.90;99.90;;;;;;4973379;28;19914;-74
2023/12/15 10:03:48;;;;;;;;;;;23.90;99.90;;;;;;4972012;28;19929;-74
2023/12/15 10:06:15;;;;;;;;;;;23.90;99.90;;;;;;5002594;28;20321;-73
2023/12/15 10:08:43;;;;;;;;;;;24.00;99.90;;;;;;4972119;28;19967;-75
2023/12/15 10:11:10;;;;;;;;;;;24.00;99.90;;;;;;4963047;28;19929;-73
2023/12/15 10:13:40;;;;;;;;;;;24.00;99.90;;;;;;4973527;28;19933;-70
2023/12/15 10:16:08;;;;;;;;;;;24.10;99.90;;;;;;4971697;28;19914;-76
2023/12/15 10:18:34;;;;;;;;;;;24.10;99.90;;;;;;4964288;28;19919;-84
2023/12/15 10:21:01;;;;;;;;;;;24.20;99.90;;;;;;4962814;28;19922;-74
2023/12/15 10:23:31;;;;;;;;;;;24.10;99.90;;;;;;4963551;28;19914;-72
2023/12/15 10:25:58;;;;;;;;;;;24.00;99.90;;;;;;4965227;28;19938;-72
2023/12/15 10:28:25;;;;;;;;;;;23.90;99.90;;;;;;4971275;28;19922;-71
2023/12/15 10:30:52;;;;;;;;;;;23.90;99.90;;;;;;4966877;28;19920;-72
2023/12/15 10:33:19;;;;;;;;;;;24.00;99.90;;;;;;4951547;28;19919;-73
2023/12/15 10:35:49;;;;;;;;;;;23.90;99.90;;;;;;4950309;28;19911;-76
2023/12/15 10:38:16;;;;;;;;;;;23.90;99.90;;;;;;4986184;28;19914;-78
2023/12/15 10:40:46;;;;;;;;;;;23.90;99.90;;;;;;4971955;28;19910;-79
2023/12/15 10:43:15;;;;;;;;;;;23.90;99.90;;;;;;4971149;28;20013;-75
2023/12/15 10:45:42;;;;;;;;;;;23.90;99.90;;;;;;4971116;28;19921;-76
2023/12/15 10:48:13;;;;;;;;;;;23.90;99.90;;;;;;4970943;28;19926;-78
2023/12/15 10:50:42;;;;;;;;;;;23.90;99.90;;;;;;4970593;28;19914;-78
2023/12/15 10:53:18;;;;;;;;;;;24.00;99.90;;;;;;4963571;28;19921;-75
2023/12/15 10:55:46;;;;;;;;;;;24.10;99.90;;;;;;4972396;28;19914;-72
2023/12/15 10:58:15;;;;;;;;;;;24.20;99.90;;;;;;4990695;28;19915;-76
2023/12/15 11:00:42;;;;;;;;;;;24.10;99.90;;;;;;4963910;28;19914;-75
2023/12/15 11:03:10;;;;;;;;;;;24.00;99.90;;;;;;4969419;28;19961;-72
2023/12/15 11:05:40;;;;;;;;;;;24.00;99.90;;;;;;4970367;28;19914;-76
2023/12/15 11:08:07;;;;;;;;;;;23.90;99.90;;;;;;4970632;28;19918;-73
2023/12/15 11:10:35;;;;;;;;;;;23.90;99.90;;;;;;4966475;28;19959;-71
2023/12/15 11:13:01;;;;;;;;;;;23.90;99.90;;;;;;4972210;28;20406;-73
2023/12/15 11:15:30;;;;;;;;;;;23.90;99.90;;;;;;4960924;28;20441;-77
2023/12/15 11:18:00;;;;;;;;;;;24.00;99.90;;;;;;4951136;28;19918;-70
2023/12/15 11:20:28;;;;;;;;;;;24.00;99.90;;;;;;4962787;28;19910;-73
2023/12/15 11:22:54;;;;;;;;;;;23.90;99.90;;;;;;4964120;28;19969;-71
2023/12/15 11:25:24;;;;;;;;;;;24.00;99.90;;;;;;4973086;28;20004;-76
2023/12/15 11:28:10;;;;;;;;;;;24.00;99.90;;;;;;4961957;28;20379;-74
2023/12/15 11:30:40;;;;;;;;;;;23.90;99.90;;;;;;4963720;28;20009;-71
2023/12/15 11:33:26;;;;;;;;;;;23.80;99.90;;;;;;4958513;28;19915;-74
2023/12/15 11:35:53;;;;;;;;;;;23.70;99.90;;;;;;4971926;28;19918;-70
2023/12/15 11:38:23;;;;;;;;;;;23.90;99.90;;;;;;4962015;28;20003;-72
2023/12/15 11:40:50;;;;;;;;;;;23.80;99.90;;;;;;4975158;28;19922;-70
2023/12/15 11:43:17;;;;;;;;;;;23.90;99.90;;;;;;4963991;28;20363;-76
2023/12/15 11:45:44;;;;;;;;;;;23.90;99.90;;;;;;4959499;28;19914;-74
2023/12/15 11:48:11;;;;;;;;;;;23.90;99.90;;;;;;4961052;28;19926;-72
2023/12/15 11:50:42;;;;;;;;;;;23.80;99.90;;;;;;4964329;28;20314;-71
2023/12/15 11:53:18;;;;;;;;;;;23.90;99.90;;;;;;4961287;28;19966;-71
2023/12/15 11:55:45;;;;;;;;;;;23.90;99.90;;;;;;4962606;28;20321;-71
2023/12/15 11:58:16;;;;;;;;;;;23.90;99.90;;;;;;4964903;28;20015;-74
2023/12/15 12:00:42;;;;;;;;;;;23.90;99.90;;;;;;4964659;28;20364;-75
2023/12/15 12:03:12;;;;;;;;;;;23.80;99.90;;;;;;4970800;28;19915;-72
2023/12/15 12:05:40;;;;;;;;;;;23.90;99.90;;;;;;4964495;28;19945;-72
2023/12/15 12:08:07;;;;;;;;;;;23.90;99.90;;;;;;4972879;28;19934;-72
2023/12/15 12:10:36;;;;;;;;;;;23.80;99.90;;;;;;4974008;28;20375;-72
2023/12/15 12:13:04;;;;;;;;;;;23.70;99.90;;;;;;4971106;28;20012;-72
2023/12/15 12:15:31;;;;;;;;;;;23.70;99.90;;;;;;4963541;28;20077;-72
2023/12/15 12:17:58;;;;;;;;;;;23.50;99.90;;;;;;4959608;28;19920;-73
2023/12/15 12:20:28;;;;;;;;;;;23.50;99.90;;;;;;4972942;28;19920;-73
2023/12/15 12:22:56;;;;;;;;;;;23.50;99.90;;;;;;4969307;28;20367;-73
2023/12/15 12:25:22;;;;;;;;;;;23.50;99.90;;;;;;5001309;28;19948;-73
2023/12/15 12:27:51;;;;;;;;;;;23.60;99.90;;;;;;4984704;28;19922;-72
2023/12/15 12:30:18;;;;;;;;;;;23.60;99.90;;;;;;4973379;28;20321;-73
2023/12/15 12:32:46;;;;;;;;;;;23.60;99.90;;;;;;4973541;28;19957;-73
2023/12/15 12:35:13;;;;;;;;;;;23.60;99.90;;;;;;4973970;28;20008;-73
2023/12/15 12:37:40;;;;;;;;;;;23.60;99.90;;;;;;4956274;28;19915;-73
2023/12/15 12:40:07;;;;;;;;;;;23.60;99.90;;;;;;4954082;28;19918;-73
2023/12/15 12:42:34;;;;;;;;;;;23.60;99.90;;;;;;4954375;28;20356;-73
2023/12/15 12:45:01;;;;;;;;;;;23.50;99.90;;;;;;4954549;28;19910;-73
2023/12/15 12:47:28;;;;;;;;;;;23.50;99.90;;;;;;4969565;28;19969;-73
2023/12/15 12:49:56;;;;;;;;;;;23.50;99.90;;;;;;4973272;28;20388;-74
2023/12/15 12:52:23;;;;;;;;;;;23.40;99.90;;;;;;4973331;28;19910;-73
2023/12/15 12:54:49;;;;;;;;;;;23.40;99.90;;;;;;4973499;28;19920;-74
2023/12/15 12:57:16;;;;;;;;;;;23.40;99.90;;;;;;4973609;28;20374;-73
2023/12/15 12:59:43;;;;;;;;;;;23.40;99.90;;;;;;4973276;28;19963;-72
2023/12/15 13:02:10;;;;;;;;;;;23.40;99.90;;;;;;4973146;28;19945;-73
2023/12/15 13:04:36;;;;;;;;;;;23.40;99.90;;;;;;4973385;28;19910;-74
2023/12/15 13:07:03;;;;;;;;;;;23.40;99.90;;;;;;4971335;28;19923;-73
2023/12/15 13:09:30;;;;;;;;;;;23.50;99.90;;;;;;4973154;28;19911;-73
2023/12/15 13:11:56;;;;;;;;;;;23.40;99.90;;;;;;4973333;28;20016;-73
2023/12/15 13:14:24;;;;;;;;;;;23.40;99.90;;;;;;4971784;28;19910;-73
2023/12/15 13:16:51;;;;;;;;;;;23.50;99.90;;;;;;4973101;28;19914;-74
2023/12/15 13:19:20;;;;;;;;;;;23.40;99.90;;;;;;4972975;28;19911;-73
2023/12/15 13:21:47;;;;;;;;;;;23.40;99.90;;;;;;4973124;28;20453;-72
2023/12/15 13:24:14;;;;;;;;;;;23.30;99.90;;;;;;4972827;28;19914;-73
2023/12/15 13:26:42;;;;;;;;;;;23.30;99.90;;;;;;4973021;28;19958;-74
2023/12/15 13:29:08;;;;;;;;;;;23.40;99.90;;;;;;4971766;28;19910;-73
2023/12/15 13:31:35;;;;;;;;;;;23.40;99.90;;;;;;4972906;28;20340;-73
2023/12/15 13:34:01;;;;;;;;;;;23.40;99.90;;;;;;4972638;28;19914;-74
2023/12/15 13:36:28;;;;;;;;;;;23.40;99.90;;;;;;4972876;28;19963;-73
2023/12/15 13:38:55;;;;;;;;;;;23.30;99.90;;;;;;4972642;28;19918;-73
2023/12/15 13:41:21;;;;;;;;;;;23.30;99.90;;;;;;4972692;28;19918;-72
2023/12/15 13:43:48;;;;;;;;;;;23.30;99.90;;;;;;4954177;28;20383;-73
2023/12/15 13:46:19;;;;;;;;;;;23.30;99.90;;;;;;4953469;28;19914;-74
2023/12/15 13:48:46;;;;;;;;;;;23.30;99.90;;;;;;4953499;28;19918;-73
2023/12/15 13:51:12;;;;;;;;;;;23.30;99.90;;;;;;4953294;28;20463;-73
2023/12/15 13:53:39;;;;;;;;;;;23.30;99.90;;;;;;4954427;28;19910;-74
2023/12/15 13:56:06;;;;;;;;;;;23.30;99.90;;;;;;4954783;28;19917;-74
2023/12/15 13:58:33;;;;;;;;;;;23.20;99.90;;;;;;4954084;28;19918;-74
2023/12/15 14:01:00;;;;;;;;;;;23.20;99.90;;;;;;4953431;28;19914;-73
2023/12/15 14:03:27;;;;;;;;;;;23.10;99.90;;;;;;4953377;28;19910;-73
2023/12/15 14:05:54;;;;;;;;;;;23.10;99.90;;;;;;4960032;28;19918;-73
2023/12/15 14:08:21;;;;;;;;;;;23.20;99.90;;;;;;4955377;28;19922;-73
2023/12/15 14:10:47;;;;;;;;;;;23.10;99.90;;;;;;4967698;28;20300;-73
2023/12/15 14:13:14;;;;;;;;;;;23.10;99.90;;;;;;4953093;28;19914;-73
2023/12/15 14:15:41;;;;;;;;;;;23.10;99.90;;;;;;4953690;28;19917;-74